Time;durP1;ratioP1;P1;durP2;ratioP2;P2;SDS_P1;SDS_P2;PMS_P1;PMS_P2;Temp;Humidity;BMP_temperature;BMP_pressure;BME280_temperature;BME280_humidity;BME280_pressure;Samples;Min_cycle;Max_cycle;Signal;HPM_P1;HPM_P2
2021/01/26 00:00:53;;;;;;;76.28;31.60;;;-0.50;99.90;;;;;;5092865;28;20021;-76
2021/01/26 00:03:19;;;;;;;80.40;31.60;;;-0.50;99.90;;;;;;5091207;28;20437;-77
2021/01/26 00:05:46;;;;;;;84.97;32.28;;;-0.50;99.90;;;;;;5092752;28;20049;-77
2021/01/26 00:08:11;;;;;;;85.20;32.63;;;-0.50;99.90;;;;;;5091584;28;20028;-76
2021/01/26 00:10:37;;;;;;;74.93;30.40;;;-0.50;99.90;;;;;;5072530;28;20033;-76
2021/01/26 00:13:04;;;;;;;78.93;32.15;;;-0.60;99.90;;;;;;5072557;28;20028;-76
2021/01/26 00:15:30;;;;;;;100.25;35.10;;;-0.60;99.90;;;;;;5071371;28;20449;-76
2021/01/26 00:17:56;;;;;;;101.43;37.88;;;-0.60;99.90;;;;;;5077257;28;20190;-76
2021/01/26 00:20:22;;;;;;;82.15;36.33;;;-0.60;99.90;;;;;;5092743;28;20142;-76
2021/01/26 00:22:48;;;;;;;91.18;35.92;;;-0.60;99.90;;;;;;5092587;28;20095;-77
2021/01/26 00:25:22;;;;;;;100.68;38.35;;;-0.60;99.90;;;;;;5092385;28;20060;-77
2021/01/26 00:27:47;;;;;;;80.65;35.92;;;-0.70;99.90;;;;;;5090054;28;20555;-76
2021/01/26 00:30:20;;;;;;;85.30;36.30;;;-0.80;99.90;;;;;;5072267;28;20105;-77
2021/01/26 00:32:46;;;;;;;80.18;32.58;;;-0.80;99.90;;;;;;5071934;28;20040;-77
2021/01/26 00:35:15;;;;;;;81.85;33.97;;;-0.90;99.90;;;;;;5070719;28;20120;-77
2021/01/26 00:37:41;;;;;;;78.78;34.90;;;-0.90;99.90;;;;;;5072172;28;20023;-77
2021/01/26 00:40:07;;;;;;;75.28;29.75;;;-1.00;99.90;;;;;;5088015;28;20024;-77
2021/01/26 00:42:33;;;;;;;92.07;32.78;;;-1.00;99.90;;;;;;5092249;28;20024;-76
2021/01/26 00:44:59;;;;;;;77.57;29.83;;;-1.10;99.90;;;;;;5091994;28;20032;-77
2021/01/26 00:47:24;;;;;;;68.43;28.67;;;-1.20;99.90;;;;;;5091237;28;20038;-77
2021/01/26 00:49:50;;;;;;;57.63;26.92;;;-1.20;99.90;;;;;;5071954;28;20062;-76
2021/01/26 00:52:15;;;;;;;67.38;32.47;;;-1.30;99.90;;;;;;5071958;28;20048;-76
2021/01/26 00:54:41;;;;;;;71.65;31.63;;;-1.40;99.90;;;;;;5071648;28;20388;-76
2021/01/26 00:57:06;;;;;;;94.07;36.70;;;-1.40;99.90;;;;;;5071653;28;20025;-76
2021/01/26 00:59:32;;;;;;;107.95;42.40;;;-1.30;99.90;;;;;;5085923;28;20028;-76
2021/01/26 01:01:58;;;;;;;110.40;42.97;;;-1.20;99.90;;;;;;5092267;28;20032;-76
2021/01/26 01:04:24;;;;;;;101.32;42.60;;;-1.10;99.90;;;;;;5091465;28;20024;-76
2021/01/26 01:06:50;;;;;;;116.20;42.47;;;-1.00;99.90;;;;;;5092021;28;20365;-77
2021/01/26 01:09:15;;;;;;;88.60;36.88;;;-0.90;99.90;;;;;;5081554;28;20419;-76
2021/01/26 01:11:41;;;;;;;100.80;40.30;;;-0.90;99.90;;;;;;5071551;28;20028;-77
2021/01/26 01:14:08;;;;;;;98.32;38.78;;;-0.90;99.90;;;;;;5070086;28;20396;-76
2021/01/26 01:16:33;;;;;;;93.38;38.00;;;-0.80;99.90;;;;;;5071736;28;20023;-77
2021/01/26 01:18:59;;;;;;;100.47;39.92;;;-0.80;99.90;;;;;;5085048;28;20107;-77
2021/01/26 01:21:25;;;;;;;106.80;40.45;;;-0.80;99.90;;;;;;5091942;28;20027;-76
2021/01/26 01:23:50;;;;;;;99.95;39.13;;;-0.80;99.90;;;;;;5090290;28;20028;-77
2021/01/26 01:26:16;;;;;;;103.88;38.90;;;-0.80;99.90;;;;;;5090408;28;20024;-76
2021/01/26 01:28:41;;;;;;;104.97;39.00;;;-0.80;99.90;;;;;;5083178;28;20077;-76
2021/01/26 01:31:07;;;;;;;89.50;37.25;;;-0.80;99.90;;;;;;5071545;28;20036;-77
2021/01/26 01:33:33;;;;;;;80.38;35.55;;;-0.80;99.90;;;;;;5071318;28;20028;-77
2021/01/26 01:35:58;;;;;;;93.50;37.72;;;-0.90;99.90;;;;;;5070027;28;20533;-77
2021/01/26 01:38:24;;;;;;;75.35;31.60;;;-0.90;99.90;;;;;;5074255;28;20020;-77
2021/01/26 01:40:52;;;;;;;99.15;39.28;;;-0.90;99.90;;;;;;5091597;28;20031;-77
2021/01/26 01:43:18;;;;;;;95.55;37.75;;;-0.90;99.90;;;;;;5091536;28;20058;-77
2021/01/26 01:45:43;;;;;;;100.30;39.88;;;-0.90;99.90;;;;;;5091478;28;20024;-77
2021/01/26 01:48:19;;;;;;;110.80;41.25;;;-0.90;99.90;;;;;;5084412;28;20125;-76
2021/01/26 01:50:53;;;;;;;105.90;40.75;;;-0.90;99.90;;;;;;5071828;28;20032;-77
2021/01/26 01:53:31;;;;;;;105.55;43.45;;;-0.90;99.90;;;;;;5071145;28;20031;-76
2021/01/26 01:56:02;;;;;;;107.95;40.95;;;-0.80;99.90;;;;;;5069848;28;20031;-77
2021/01/26 01:58:32;;;;;;;114.90;44.50;;;-0.70;99.90;;;;;;5077185;28;20030;-76
2021/01/26 02:01:04;;;;;;;112.07;44.88;;;-0.70;99.90;;;;;;5091453;28;20032;-77
2021/01/26 02:03:35;;;;;;;107.32;44.35;;;-0.60;99.90;;;;;;5091088;28;20028;-77
2021/01/26 02:06:02;;;;;;;143.07;50.38;;;-0.60;99.90;;;;;;5091254;28;20032;-76
2021/01/26 02:08:51;;;;;;;129.50;48.03;;;-0.60;99.90;;;;;;5087665;28;20045;-77
2021/01/26 02:11:18;;;;;;;127.45;49.80;;;-0.50;99.90;;;;;;5071183;28;20021;-77
2021/01/26 02:13:43;;;;;;;116.50;49.00;;;-0.50;99.90;;;;;;5069184;28;20028;-77
2021/01/26 02:16:14;;;;;;;125.15;48.38;;;-0.50;99.90;;;;;;5071124;28;20505;-77
2021/01/26 02:18:57;;;;;;;125.03;50.45;;;-0.40;99.90;;;;;;5081966;28;20526;-76
2021/01/26 02:21:50;;;;;;;132.48;49.42;;;-0.40;99.90;;;;;;5091349;28;20028;-77
2021/01/26 02:25:03;;;;;;;120.80;46.85;;;-0.30;99.90;;;;;;5094745;28;20020;-76
2021/01/26 02:27:59;;;;;;;112.20;46.65;;;-0.30;99.90;;;;;;5094938;28;20023;-77
2021/01/26 02:30:52;;;;;;;124.47;46.80;;;-0.30;99.90;;;;;;5074670;28;20073;-77
2021/01/26 02:33:23;;;;;;;119.18;46.58;;;-0.30;99.90;;;;;;5074477;28;20029;-76
2021/01/26 02:36:08;;;;;;;120.90;47.35;;;-0.30;99.90;;;;;;5074280;28;20025;-77
2021/01/26 02:38:48;;;;;;;123.38;47.83;;;-0.20;99.90;;;;;;5077126;28;20020;-77
2021/01/26 02:41:27;;;;;;;123.18;47.95;;;-0.20;99.90;;;;;;5094655;28;20020;-77
2021/01/26 02:44:00;;;;;;;112.28;46.30;;;-0.20;99.90;;;;;;5094377;28;20024;-76
2021/01/26 02:46:30;;;;;;;120.03;44.78;;;-0.20;99.90;;;;;;5093403;28;20020;-77
2021/01/26 02:49:26;;;;;;;117.60;46.90;;;-0.20;99.90;;;;;;5081311;28;20032;-76
2021/01/26 02:52:13;;;;;;;135.90;51.45;;;-0.30;99.90;;;;;;5072412;28;20496;-76
2021/01/26 02:54:50;;;;;;;124.45;48.60;;;-0.30;99.90;;;;;;5073926;28;20032;-76
2021/01/26 02:57:35;;;;;;;130.05;48.70;;;-0.30;99.90;;;;;;5074197;28;20020;-77
2021/01/26 03:00:00;;;;;;;119.38;47.60;;;-0.30;99.90;;;;;;5090197;28;20111;-77
2021/01/26 03:02:31;;;;;;;140.68;50.95;;;-0.30;99.90;;;;;;5093826;28;20538;-76
2021/01/26 03:05:19;;;;;;;122.65;48.17;;;-0.30;99.90;;;;;;5094100;28;20042;-77
2021/01/26 03:07:51;;;;;;;148.07;58.08;;;-0.20;99.90;;;;;;5094167;28;20097;-76
2021/01/26 03:10:21;;;;;;;136.20;49.75;;;-0.20;99.90;;;;;;5093339;28;20396;-77
2021/01/26 03:12:55;;;;;;;123.38;48.28;;;-0.20;99.90;;;;;;5093895;28;20024;-77
2021/01/26 03:15:26;;;;;;;121.30;48.38;;;-0.30;99.90;;;;;;5092722;28;20381;-77
2021/01/26 03:17:56;;;;;;;116.88;48.00;;;-0.20;99.90;;;;;;5088607;28;20034;-77
2021/01/26 03:20:26;;;;;;;114.82;46.83;;;-0.20;99.90;;;;;;5072430;28;20024;-77
2021/01/26 03:22:54;;;;;;;116.70;49.45;;;-0.20;99.90;;;;;;5072254;28;20048;-77
2021/01/26 03:25:23;;;;;;;146.80;52.63;;;-0.20;99.90;;;;;;5073345;28;20025;-77
2021/01/26 03:27:52;;;;;;;124.78;48.65;;;-0.10;99.90;;;;;;5074114;28;20098;-77
2021/01/26 03:30:23;;;;;;;136.40;51.85;;;-0.10;99.90;;;;;;5093387;28;20097;-77
2021/01/26 03:32:55;;;;;;;147.60;54.47;;;0.00;99.90;;;;;;5093206;28;20038;-77
2021/01/26 03:35:20;;;;;;;131.90;52.90;;;0.00;99.90;;;;;;5093374;28;20111;-77
2021/01/26 03:37:57;;;;;;;120.50;49.92;;;0.00;99.90;;;;;;5093440;28;20058;-77
2021/01/26 03:40:23;;;;;;;117.38;48.13;;;0.00;99.90;;;;;;5073826;28;20032;-77
2021/01/26 03:42:48;;;;;;;114.90;45.65;;;0.00;99.90;;;;;;5073149;28;20428;-77
2021/01/26 03:45:14;;;;;;;131.10;48.05;;;0.00;99.90;;;;;;5072992;28;20063;-77
2021/01/26 03:48:10;;;;;;;118.82;45.83;;;0.00;99.90;;;;;;5075506;28;20036;-77
2021/01/26 03:50:52;;;;;;;128.60;49.15;;;0.10;99.90;;;;;;5093264;28;20496;-77
2021/01/26 03:53:26;;;;;;;122.78;44.95;;;0.00;99.90;;;;;;5093249;28;20028;-77
2021/01/26 03:56:18;;;;;;;131.52;48.15;;;0.00;99.90;;;;;;5092914;28;20032;-77
2021/01/26 03:59:11;;;;;;;119.32;43.83;;;0.00;99.90;;;;;;5082971;28;20393;-77
2021/01/26 04:01:42;;;;;;;106.20;42.58;;;-0.10;99.90;;;;;;5072641;28;20376;-77
2021/01/26 04:04:33;;;;;;;98.97;39.88;;;-0.10;99.90;;;;;;5086254;28;20031;-77
2021/01/26 04:07:03;;;;;;;97.60;36.63;;;-0.10;99.90;;;;;;5093031;28;20106;-77
2021/01/26 04:09:42;;;;;;;99.57;36.13;;;-0.10;99.90;;;;;;5079415;28;20056;-77
2021/01/26 04:12:15;;;;;;;111.28;42.38;;;-0.10;99.90;;;;;;5072615;28;20043;-76
2021/01/26 04:15:04;;;;;;;97.15;38.97;;;0.00;99.90;;;;;;5072231;28;20062;-77
2021/01/26 04:17:34;;;;;;;112.47;41.58;;;0.00;99.90;;;;;;5072016;28;20028;-77
2021/01/26 04:20:11;;;;;;;88.97;34.55;;;0.00;99.90;;;;;;5092353;28;20047;-77
2021/01/26 04:22:38;;;;;;;95.32;39.58;;;0.00;99.90;;;;;;5092756;28;20051;-76
2021/01/26 04:25:28;;;;;;;96.07;36.17;;;0.10;99.90;;;;;;5092519;28;20089;-76
2021/01/26 04:27:54;;;;;;;89.43;34.00;;;0.10;99.90;;;;;;5089444;28;20024;-77
2021/01/26 04:30:20;;;;;;;84.65;33.50;;;0.00;99.90;;;;;;5072227;28;20062;-76
2021/01/26 04:32:54;;;;;;;86.40;31.55;;;-0.10;99.90;;;;;;5072106;28;20031;-77
2021/01/26 04:35:19;;;;;;;82.32;33.50;;;-0.20;99.90;;;;;;5072059;28;20031;-76
2021/01/26 04:37:45;;;;;;;90.10;33.35;;;-0.40;99.90;;;;;;5072268;28;20029;-77
2021/01/26 04:40:12;;;;;;;73.57;31.50;;;-0.50;99.90;;;;;;5089821;28;20047;-77
2021/01/26 04:42:40;;;;;;;72.43;30.77;;;-0.60;99.90;;;;;;5092327;28;20475;-76
2021/01/26 04:45:12;;;;;;;72.22;30.38;;;-0.70;99.90;;;;;;5091713;28;20511;-77
2021/01/26 04:47:52;;;;;;;68.85;30.13;;;-0.80;99.90;;;;;;5089889;28;20094;-76
2021/01/26 04:50:45;;;;;;;79.18;31.55;;;-1.00;99.90;;;;;;5072093;28;20066;-77
2021/01/26 04:53:23;;;;;;;79.83;33.07;;;-1.10;99.90;;;;;;5070684;28;20062;-77
2021/01/26 04:56:11;;;;;;;85.10;34.35;;;-1.20;99.90;;;;;;5071735;28;20274;-77
2021/01/26 04:58:46;;;;;;;90.57;34.63;;;-1.20;99.90;;;;;;5072726;28;20025;-77
2021/01/26 05:01:28;;;;;;;82.57;33.65;;;-1.20;99.90;;;;;;5071801;28;20496;-76
2021/01/26 05:04:21;;;;;;;104.43;35.40;;;-1.30;99.90;;;;;;5070297;28;20660;-76
2021/01/26 05:06:55;;;;;;;98.15;36.50;;;-1.20;99.90;;;;;;5071958;28;20013;-76
2021/01/26 05:09:26;;;;;;;95.85;34.58;;;-1.20;99.90;;;;;;5077881;28;20771;-76
2021/01/26 05:11:54;;;;;;;84.28;33.83;;;-1.20;99.90;;;;;;5090714;28;20557;-76
2021/01/26 05:14:25;;;;;;;80.32;30.52;;;-1.20;99.90;;;;;;5090230;28;20048;-76
2021/01/26 05:16:54;;;;;;;88.57;29.45;;;-1.20;99.90;;;;;;5092082;28;20485;-76
2021/01/26 05:19:45;;;;;;;80.78;27.73;;;-1.20;99.90;;;;;;5073987;28;20055;-76
2021/01/26 05:22:26;;;;;;;77.20;27.17;;;-1.20;99.90;;;;;;5071662;28;20070;-76
2021/01/26 05:25:01;;;;;;;64.72;26.73;;;-1.30;99.90;;;;;;5071551;28;20033;-76
2021/01/26 05:27:28;;;;;;;62.50;23.38;;;-1.40;99.90;;;;;;5071658;28;20025;-76
2021/01/26 05:29:53;;;;;;;52.95;21.40;;;-1.30;99.90;;;;;;5089503;28;20050;-76
2021/01/26 05:32:19;;;;;;;61.95;22.60;;;-1.30;99.90;;;;;;5090439;28;20028;-76
2021/01/26 05:34:44;;;;;;;49.08;19.60;;;-1.30;99.90;;;;;;5091220;28;20500;-77
2021/01/26 05:37:14;;;;;;;53.60;20.55;;;-1.40;99.90;;;;;;5091777;28;20028;-77
2021/01/26 05:39:53;;;;;;;51.60;18.27;;;-1.30;99.90;;;;;;5078541;28;20031;-77
2021/01/26 05:42:21;;;;;;;53.30;20.67;;;-1.40;99.90;;;;;;5070302;28;20029;-77
2021/01/26 05:44:50;;;;;;;49.13;18.35;;;-1.40;99.90;;;;;;5071287;28;20028;-76
2021/01/26 05:47:29;;;;;;;49.70;17.08;;;-1.50;99.90;;;;;;5071301;28;20396;-76
2021/01/26 05:49:55;;;;;;;49.30;16.05;;;-1.60;99.90;;;;;;5071480;28;20111;-76
2021/01/26 05:52:30;;;;;;;48.25;18.83;;;-1.60;99.90;;;;;;5071373;28;20029;-76
2021/01/26 05:54:57;;;;;;;51.78;20.85;;;-1.60;99.90;;;;;;5071073;28;20043;-77
2021/01/26 05:57:29;;;;;;;64.65;20.77;;;-1.40;99.90;;;;;;5072584;28;20017;-76
2021/01/26 06:00:12;;;;;;;43.33;18.05;;;-1.20;99.90;;;;;;5093311;28;20027;-76
2021/01/26 06:02:38;;;;;;;49.15;19.75;;;-1.30;99.90;;;;;;5094787;28;20058;-76
2021/01/26 06:05:16;;;;;;;51.05;20.15;;;-1.50;99.90;;;;;;5095291;28;20063;-76
2021/01/26 06:07:42;;;;;;;58.78;23.33;;;-1.50;99.90;;;;;;5094076;28;20032;-76
2021/01/26 06:10:21;;;;;;;47.47;21.65;;;-1.50;99.90;;;;;;5077672;28;20028;-76
2021/01/26 06:12:56;;;;;;;61.60;22.13;;;-1.60;99.90;;;;;;5074787;28;20480;-77
2021/01/26 06:15:27;;;;;;;53.78;22.77;;;-1.70;99.90;;;;;;5074606;28;20040;-76
2021/01/26 06:18:17;;;;;;;48.90;21.08;;;-1.80;99.90;;;;;;5078818;28;20410;-76
2021/01/26 06:20:45;;;;;;;59.08;23.13;;;-1.80;99.90;;;;;;5095073;28;20020;-76
2021/01/26 06:23:14;;;;;;;78.65;23.08;;;-1.90;99.90;;;;;;5095022;28;20121;-76
2021/01/26 06:25:41;;;;;;;58.70;20.40;;;-1.90;99.90;;;;;;5093602;28;20024;-76
2021/01/26 06:28:29;;;;;;;47.85;18.85;;;-1.80;99.90;;;;;;5094149;28;20028;-76
2021/01/26 06:31:16;;;;;;;46.83;17.85;;;-1.80;99.90;;;;;;5093610;28;20020;-76
2021/01/26 06:33:58;;;;;;;46.45;16.52;;;-1.80;99.90;;;;;;5094511;28;20028;-76
2021/01/26 06:37:00;;;;;;;44.63;15.45;;;-1.60;99.90;;;;;;5093566;28;20020;-76
2021/01/26 06:39:52;;;;;;;39.85;12.70;;;-1.50;99.90;;;;;;5083205;28;20078;-76
2021/01/26 06:42:24;;;;;;;40.22;13.10;;;-1.60;99.90;;;;;;5074504;28;20021;-76
2021/01/26 06:45:04;;;;;;;38.90;10.98;;;-1.60;99.90;;;;;;5074212;28;20045;-77
2021/01/26 06:48:01;;;;;;;38.13;14.30;;;-1.50;99.90;;;;;;5073865;28;20024;-77
2021/01/26 06:51:00;;;;;;;155.10;47.80;;;-1.50;99.90;;;;;;5094600;28;20024;-77
2021/01/26 06:53:35;;;;;;;280.52;84.38;;;-1.50;99.90;;;;;;5093163;28;20487;-76
2021/01/26 06:56:19;;;;;;;214.68;67.13;;;-1.50;99.90;;;;;;5092992;28;20024;-76
2021/01/26 06:59:15;;;;;;;81.10;27.73;;;-1.50;99.90;;;;;;5085569;28;20021;-76
2021/01/26 07:01:50;;;;;;;36.38;11.32;;;-1.50;99.90;;;;;;5072568;28;20104;-76
2021/01/26 07:04:34;;;;;;;29.08;10.55;;;-1.30;99.90;;;;;;5073815;28;20396;-76
2021/01/26 07:07:21;;;;;;;35.00;12.05;;;-1.10;99.90;;;;;;5074031;28;20058;-77
2021/01/26 07:10:07;;;;;;;39.55;12.35;;;-0.90;99.90;;;;;;5074681;28;20052;-76
2021/01/26 07:12:52;;;;;;;35.08;15.18;;;-0.80;99.90;;;;;;5093143;28;20369;-76
2021/01/26 07:15:27;;;;;;;47.10;14.38;;;-0.80;99.90;;;;;;5093655;28;20028;-76
2021/01/26 07:18:07;;;;;;;44.25;16.00;;;-0.80;99.90;;;;;;5089567;28;20048;-76
2021/01/26 07:20:38;;;;;;;50.58;19.98;;;-0.70;99.90;;;;;;5073809;28;20441;-76
2021/01/26 07:23:18;;;;;;;53.60;16.42;;;-0.70;99.90;;;;;;5079368;28;20099;-77
2021/01/26 07:26:35;;;;;;;39.88;14.63;;;-0.70;99.90;;;;;;5092465;28;20025;-76
2021/01/26 07:29:45;;;;;;;40.30;13.85;;;-0.60;99.90;;;;;;5081450;28;20040;-77
2021/01/26 07:32:22;;;;;;;41.22;13.43;;;-0.30;99.90;;;;;;5093749;28;20429;-77
2021/01/26 07:34:57;;;;;;;31.20;12.13;;;-0.10;99.90;;;;;;5073286;28;20050;-76
2021/01/26 07:37:28;;;;;;;31.92;13.07;;;0.00;99.90;;;;;;5073378;28;20027;-77
2021/01/26 07:40:02;;;;;;;24.77;10.50;;;-0.10;99.90;;;;;;5072141;28;20020;-76
2021/01/26 07:42:41;;;;;;;24.27;9.60;;;-0.10;99.90;;;;;;5072058;28;20119;-77
2021/01/26 07:45:39;;;;;;;24.35;10.55;;;-0.30;99.90;;;;;;5088854;28;20493;-76
2021/01/26 07:48:18;;;;;;;25.88;12.38;;;-0.40;99.90;;;;;;5071874;28;20043;-77
2021/01/26 07:50:48;;;;;;;20.75;10.32;;;-0.50;99.90;;;;;;5071957;28;20029;-77
2021/01/26 07:53:26;;;;;;;32.47;8.70;;;-0.60;99.90;;;;;;5073851;28;20488;-76
2021/01/26 07:56:02;;;;;;;26.45;10.10;;;-0.60;99.90;;;;;;5092982;28;20042;-76
2021/01/26 07:58:28;;;;;;;20.88;8.95;;;-0.70;99.90;;;;;;5093352;28;20099;-76
2021/01/26 08:00:58;;;;;;;24.58;10.23;;;-0.70;99.90;;;;;;5090389;28;20556;-76
2021/01/26 08:03:27;;;;;;;35.22;9.23;;;-0.70;99.90;;;;;;5083586;28;20021;-77
2021/01/26 08:05:55;;;;;;;34.55;9.23;;;-0.70;99.90;;;;;;5072406;28;20732;-76
2021/01/26 08:08:21;;;;;;;29.20;7.45;;;-0.70;99.90;;;;;;5071250;28;20071;-76
2021/01/26 08:11:03;;;;;;;21.38;8.40;;;-0.80;99.90;;;;;;5071303;28;20024;-76
2021/01/26 08:13:29;;;;;;;20.35;7.22;;;-0.90;99.90;;;;;;5076640;28;20024;-76
2021/01/26 08:15:54;;;;;;;20.00;7.05;;;-0.90;99.90;;;;;;5091046;28;20506;-76
2021/01/26 08:18:24;;;;;;;24.27;9.43;;;-0.80;99.90;;;;;;5092329;28;20020;-76
2021/01/26 08:20:49;;;;;;;21.05;8.45;;;-0.80;99.90;;;;;;5090788;28;20021;-76
2021/01/26 08:23:24;;;;;;;20.38;9.68;;;-0.70;99.90;;;;;;5090029;28;20582;-76
2021/01/26 08:25:53;;;;;;;31.30;10.70;;;-0.60;99.90;;;;;;5084674;28;20574;-77
2021/01/26 08:28:41;;;;;;;41.50;11.32;;;-0.40;99.90;;;;;;5092310;28;20021;-77
2021/01/26 08:31:38;;;;;;;24.05;9.77;;;-0.10;99.90;;;;;;5092517;28;20016;-77
2021/01/26 08:34:24;;;;;;;41.33;10.25;;;0.20;99.90;;;;;;5091441;28;20032;-77
2021/01/26 08:37:08;;;;;;;20.85;9.50;;;0.30;99.90;;;;;;5088021;28;20114;-77
2021/01/26 08:39:41;;;;;;;32.78;10.35;;;0.40;99.90;;;;;;5092321;28;20028;-77
2021/01/26 08:42:08;;;;;;;27.08;10.50;;;0.40;99.90;;;;;;5092535;28;20506;-77
2021/01/26 08:44:34;;;;;;;34.53;8.27;;;0.40;99.90;;;;;;5076683;28;20029;-77
2021/01/26 08:47:00;;;;;;;24.58;8.85;;;0.40;99.90;;;;;;5072096;28;20511;-77
2021/01/26 08:49:33;;;;;;;29.38;8.68;;;0.40;99.90;;;;;;5070665;28;20032;-77
2021/01/26 08:52:37;;;;;;;22.27;6.10;;;0.50;99.90;;;;;;5071955;28;20392;-77
2021/01/26 08:55:04;;;;;;;15.68;6.63;;;0.60;99.90;;;;;;5069646;28;20036;-77
2021/01/26 08:57:29;;;;;;;20.83;6.20;;;0.70;99.90;;;;;;5067170;28;20027;-77
2021/01/26 08:59:56;;;;;;;19.83;5.30;;;0.70;99.90;;;;;;5070857;28;20033;-76
2021/01/26 09:02:48;;;;;;;23.65;5.43;;;0.70;99.90;;;;;;5071355;28;20033;-77
2021/01/26 09:05:34;;;;;;;21.13;5.65;;;0.80;99.90;;;;;;5091756;28;20104;-76
2021/01/26 09:08:05;;;;;;;27.92;5.13;;;0.90;99.90;;;;;;5092033;28;20028;-77
2021/01/26 09:10:52;;;;;;;20.55;5.25;;;1.10;99.90;;;;;;5092134;28;20031;-77
2021/01/26 09:13:31;;;;;;;15.38;4.40;;;1.20;99.90;;;;;;5087115;28;20029;-77
2021/01/26 09:16:14;;;;;;;20.77;4.55;;;1.10;99.90;;;;;;5075176;28;20052;-75
2021/01/26 09:18:40;;;;;;;35.38;5.80;;;1.20;99.90;;;;;;5077772;28;20020;-76
2021/01/26 09:21:14;;;;;;;20.73;5.15;;;1.20;99.90;;;;;;5075341;28;20025;-76
2021/01/26 09:23:44;;;;;;;25.88;8.07;;;1.30;99.90;;;;;;5078930;28;20535;-76
2021/01/26 09:26:14;;;;;;;23.98;7.63;;;1.40;99.90;;;;;;5091719;28;20115;-75
2021/01/26 09:28:42;;;;;;;26.25;9.43;;;1.40;99.90;;;;;;5075907;28;20028;-75
2021/01/26 09:31:13;;;;;;;41.45;17.10;;;1.50;99.90;;;;;;5072360;28;20020;-76
2021/01/26 09:33:40;;;;;;;35.25;10.60;;;1.50;99.90;;;;;;5074375;28;20055;-76
2021/01/26 09:36:10;;;;;;;20.52;5.93;;;1.50;99.90;;;;;;5075248;28;20512;-76
2021/01/26 09:38:41;;;;;;;40.60;8.57;;;1.60;99.90;;;;;;5075527;28;20105;-76
2021/01/26 09:41:19;;;;;;;46.28;7.47;;;1.70;99.90;;;;;;5093360;28;20395;-76
2021/01/26 09:43:50;;;;;;;31.45;7.20;;;1.80;99.90;;;;;;5095570;28;20031;-76
2021/01/26 09:46:26;;;;;;;25.50;9.10;;;1.80;99.90;;;;;;5095771;28;20026;-76
2021/01/26 09:48:55;;;;;;;37.20;8.02;;;1.90;99.90;;;;;;5095737;28;20028;-76
2021/01/26 09:51:28;;;;;;;38.38;11.18;;;1.90;99.90;;;;;;5093248;28;20028;-76
2021/01/26 09:54:11;;;;;;;27.90;5.75;;;2.00;99.90;;;;;;5093722;28;20035;-76
2021/01/26 09:56:38;;;;;;;15.60;3.80;;;2.10;99.90;;;;;;5095545;28;20027;-76
2021/01/26 09:59:06;;;;;;;9.98;5.13;;;2.10;99.90;;;;;;5095330;28;20059;-77
2021/01/26 10:01:33;;;;;;;25.63;8.13;;;2.10;99.90;;;;;;5078841;28;20519;-76
2021/01/26 10:04:02;;;;;;;12.02;4.72;;;2.20;99.90;;;;;;5074836;28;20033;-77
2021/01/26 10:06:28;;;;;;;19.63;3.72;;;2.20;99.90;;;;;;5074957;28;20024;-76
2021/01/26 10:08:54;;;;;;;29.80;3.65;;;2.30;99.90;;;;;;5073834;28;20025;-77
2021/01/26 10:11:29;;;;;;;10.30;3.05;;;2.30;99.90;;;;;;5084970;28;20438;-76
2021/01/26 10:14:19;;;;;;;14.90;3.58;;;2.40;99.90;;;;;;5094882;28;20095;-76
2021/01/26 10:16:47;;;;;;;36.67;3.88;;;2.40;99.90;;;;;;5093882;28;20024;-76
2021/01/26 10:19:28;;;;;;;13.30;4.47;;;2.50;99.90;;;;;;5095063;28;20024;-77
2021/01/26 10:22:02;;;;;;;16.38;3.75;;;2.60;99.90;;;;;;5074023;28;20044;-77
2021/01/26 10:24:31;;;;;;;16.08;2.35;;;2.60;99.90;;;;;;5073264;28;20025;-77
2021/01/26 10:27:11;;;;;;;18.52;2.40;;;2.70;99.90;;;;;;5074566;28;20029;-77
2021/01/26 10:29:43;;;;;;;13.98;2.10;;;2.70;99.90;;;;;;5075073;28;20032;-76
2021/01/26 10:32:11;;;;;;;13.68;1.90;;;2.80;99.90;;;;;;5092838;28;20528;-77
2021/01/26 10:34:49;;;;;;;17.40;1.88;;;2.80;99.90;;;;;;5092869;28;20020;-76
2021/01/26 10:37:23;;;;;;;14.00;1.77;;;2.90;99.90;;;;;;5094929;28;20379;-76
2021/01/26 10:40:20;;;;;;;14.32;2.13;;;2.90;99.90;;;;;;5094622;28;20024;-77
2021/01/26 10:43:11;;;;;;;12.40;1.73;;;2.90;99.90;;;;;;5073668;28;20402;-77
2021/01/26 10:46:03;;;;;;;7.75;3.00;;;3.00;99.90;;;;;;5072982;28;20063;-77
2021/01/26 10:48:31;;;;;;;9.27;1.85;;;3.00;99.90;;;;;;5072968;28;20503;-76
2021/01/26 10:51:08;;;;;;;13.05;2.45;;;3.00;99.90;;;;;;5085620;28;20077;-76
2021/01/26 10:53:39;;;;;;;6.95;1.65;;;3.10;99.90;;;;;;5094396;28;20040;-76
2021/01/26 10:56:06;;;;;;;16.10;2.58;;;3.20;99.90;;;;;;5094194;28;20024;-77
2021/01/26 10:58:31;;;;;;;22.50;1.77;;;3.30;99.90;;;;;;5094364;28;20031;-77
2021/01/26 11:00:57;;;;;;;15.30;3.35;;;3.30;99.90;;;;;;5084261;28;20020;-78
2021/01/26 11:03:23;;;;;;;10.10;1.45;;;3.40;99.90;;;;;;5073489;28;20024;-77
2021/01/26 11:05:49;;;;;;;21.33;1.65;;;3.40;99.90;;;;;;5073725;28;20032;-77
2021/01/26 11:08:14;;;;;;;13.25;2.33;;;3.40;99.90;;;;;;5073936;28;20514;-77
2021/01/26 11:10:40;;;;;;;21.30;2.05;;;3.40;99.90;;;;;;5075939;28;20032;-77
2021/01/26 11:13:06;;;;;;;16.27;2.05;;;3.50;99.90;;;;;;5075243;28;20099;-77
2021/01/26 11:15:32;;;;;;;8.80;1.77;;;3.50;99.90;;;;;;5072148;28;20048;-77
2021/01/26 11:17:57;;;;;;;13.55;1.70;;;3.50;99.90;;;;;;5084586;28;20459;-77
2021/01/26 11:20:23;;;;;;;28.17;2.25;;;3.50;99.90;;;;;;5097843;28;20024;-77
2021/01/26 11:22:49;;;;;;;23.40;1.85;;;3.50;99.90;;;;;;5072408;28;20370;-77
2021/01/26 11:25:16;;;;;;;9.40;1.67;;;3.60;99.90;;;;;;5078464;28;20024;-77
2021/01/26 11:27:42;;;;;;;7.35;1.55;;;3.60;99.90;;;;;;5083025;28;20027;-77
2021/01/26 11:30:13;;;;;;;5.22;1.70;;;3.70;99.90;;;;;;5085221;28;20629;-77
2021/01/26 11:32:38;;;;;;;28.35;2.13;;;3.70;99.90;;;;;;5093468;28;20024;-77
2021/01/26 11:35:06;;;;;;;18.17;1.63;;;3.70;99.90;;;;;;5093027;28;20035;-78
2021/01/26 11:37:32;;;;;;;10.80;1.75;;;3.80;99.90;;;;;;5092376;28;20027;-77
2021/01/26 11:39:58;;;;;;;9.20;2.00;;;3.80;99.90;;;;;;5092316;28;20028;-77
2021/01/26 11:42:23;;;;;;;24.30;4.78;;;3.80;99.90;;;;;;5076516;28;20077;-77
2021/01/26 11:44:49;;;;;;;25.85;2.20;;;3.90;99.90;;;;;;5072941;28;20111;-77
2021/01/26 11:47:15;;;;;;;10.65;1.52;;;3.90;99.90;;;;;;5073077;28;20024;-78
2021/01/26 11:49:41;;;;;;;6.97;1.40;;;3.90;99.90;;;;;;5074090;28;20024;-77
2021/01/26 11:52:06;;;;;;;20.95;2.00;;;4.00;99.90;;;;;;5082273;28;20119;-78
2021/01/26 11:54:32;;;;;;;8.48;1.63;;;4.00;99.90;;;;;;5092058;28;20107;-77
2021/01/26 11:56:57;;;;;;;22.70;5.32;;;4.10;99.90;;;;;;5086391;28;20024;-77
2021/01/26 11:59:23;;;;;;;16.15;1.70;;;4.10;99.90;;;;;;5083407;28;20369;-78
2021/01/26 12:01:52;;;;;;;5.63;1.20;;;4.10;99.90;;;;;;5086185;28;20436;-78
2021/01/26 12:04:18;;;;;;;3.95;1.33;;;4.20;99.90;;;;;;5081323;28;20017;-78
2021/01/26 12:06:43;;;;;;;7.38;1.88;;;4.20;99.90;;;;;;5073544;28;20078;-77
2021/01/26 12:09:09;;;;;;;6.90;1.70;;;4.30;99.90;;;;;;5072528;28;20107;-77
2021/01/26 12:11:34;;;;;;;12.73;1.92;;;4.30;99.90;;;;;;5085020;28;20028;-77
2021/01/26 12:14:01;;;;;;;3.85;1.38;;;4.40;99.90;;;;;;5091428;28;20024;-78
2021/01/26 12:16:26;;;;;;;5.15;1.65;;;4.40;99.90;;;;;;5091550;28;20559;-78
2021/01/26 12:18:52;;;;;;;6.15;1.10;;;4.40;99.90;;;;;;5092424;28;20099;-78
2021/01/26 12:21:18;;;;;;;12.10;1.73;;;4.40;99.90;;;;;;5078356;28;20024;-78
2021/01/26 12:23:48;;;;;;;8.13;1.17;;;4.50;99.90;;;;;;5072221;28;20032;-77
2021/01/26 12:26:14;;;;;;;15.40;1.88;;;4.50;99.90;;;;;;5071138;28;20457;-77
2021/01/26 12:28:39;;;;;;;4.13;1.25;;;4.50;99.90;;;;;;5070834;28;20027;-78
2021/01/26 12:31:05;;;;;;;7.60;1.83;;;4.50;99.90;;;;;;5081612;28;20031;-78
2021/01/26 12:33:30;;;;;;;7.22;1.25;;;4.50;99.90;;;;;;5092556;28;20020;-78
2021/01/26 12:35:56;;;;;;;6.03;1.40;;;4.60;99.90;;;;;;5091931;28;20449;-78
2021/01/26 12:38:22;;;;;;;8.80;2.92;;;4.60;99.90;;;;;;5092135;28;20084;-78
2021/01/26 12:40:47;;;;;;;80.45;28.33;;;4.70;99.90;;;;;;5087882;28;20025;-78
2021/01/26 12:43:13;;;;;;;15.48;3.85;;;4.70;99.90;;;;;;5072044;28;20028;-78
2021/01/26 12:45:39;;;;;;;11.45;4.07;;;4.80;99.90;;;;;;5071930;28;20017;-78
2021/01/26 12:48:05;;;;;;;13.50;2.03;;;4.90;99.90;;;;;;5072003;28;20036;-78
2021/01/26 12:50:34;;;;;;;6.38;1.92;;;5.10;99.90;;;;;;5070987;28;20024;-77
2021/01/26 12:53:00;;;;;;;15.63;3.15;;;5.20;99.90;;;;;;5071943;28;20046;-77
2021/01/26 12:55:26;;;;;;;13.32;2.85;;;5.50;99.90;;;;;;5071634;28;20392;-78
2021/01/26 12:57:51;;;;;;;3.88;2.35;;;5.70;99.90;;;;;;5072311;28;20032;-78
2021/01/26 13:00:19;;;;;;;22.35;8.57;;;5.80;99.90;;;;;;5074516;28;20051;-78
2021/01/26 13:02:46;;;;;;;21.92;8.35;;;5.60;99.90;;;;;;5090357;28;20115;-77